메인 페이지
METAR-TAF:

METAR-TAF

공항 :

키수무, 케냐

위도: 00-06S, 경도: 034-45E, 고도: 1157m

현재 날씨관측

예보는 36분 전, 09:00시(UTC)에 발표되었습니다.
3kt
온도 27°C
습도 51%
기압 1019 hPa
시정 10km 이상
고도 2600ft 상공 구름 조금

METAR: HKKI 130900Z 17003KT 9999 FEW026 27/16 Q1019

시각: 12:36 (09:36 UTC)

예보

예보는 4 시간 36분 전, 05:00시(UTC)에 발표되었습니다.
예보 대상 시간: 13일 06시부터 14일 12시까지 (UTC)
여러 방향의 바람 3kt
시정 10km 이상
고도 1800ft 상공 구름 보통
전환 중
13일 08시부터 13일 11시까지 (UTC)
남서10kt
고도 2400ft 상공 구름 조금, 적란운.
고도 2500ft 상공 구름 보통
일시적
13일 13시부터 13일 17시까지 (UTC)
고도 2000ft 상공 구름 조금, 적란운.
고도 2100ft 상공 구름 보통
고도 8000ft 상공 구름 많음
뇌우, 약한비
전환 중
13일 21시부터 13일 24시까지 (UTC)
여러 방향의 바람 3kt
고도 1800ft 상공 구름 조금
전환 중
14일 08시부터 14일 11시까지 (UTC)
남서10kt
고도 2500ft 상공 구름 조금, 적란운.
고도 2600ft 상공 구름 보통

TAF: HKKI 130500Z 1306/1412 VRB03KT 9999 SCT018 BECMG 1308/1311 22010KT FEW024CB SCT025 TEMPO 1313/1317 -TSRA FEW020CB SCT021 BKN080 BECMG 1321/1324 VRB03KT NSW FEW018 BECMG 1408/1411 22010KT FEW025CB SCT026

4,000개 이상의 공항 관측 자료 및 예보 (METAR 및 TAF 보고).

지도상에서 검색 가능한 기상관측소가 노란 점과 빨간 점으로 표시되어 있습니다.

기상관측소 명을 보려면 표시 위로 마우스를 이동하세요.

날씨 관측과 예보를 보려면 클릭하세요.

지도 변경 : 확대하려면 엑스 표시가 있는 녹색 버튼, 축소하려면 빼기 표시가 있는 녹색 버튼, 다음 페이지의 지도를 보려면 녹색 화살표를 클릭하세요.


METAR-TAF: